Time;durP1;ratioP1;P1;durP2;ratioP2;P2;SDS_P1;SDS_P2;PMS_P1;PMS_P2;Temp;Humidity;BMP_temperature;BMP_pressure;BME280_temperature;BME280_humidity;BME280_pressure;Samples;Min_cycle;Max_cycle;Signal;HPM_P1;HPM_P2
2022/07/15 00:00:45;;;;;;;7.30;2.65;;;;;;;;;;5127365;28;20039;-72
2022/07/15 00:03:15;;;;;;;;;;;;;;;;;;5127521;27;20054;-73
2022/07/15 00:05:45;;;;;;;3.85;2.72;;;;;;;;;;5128159;28;20302;-72
2022/07/15 00:08:15;;;;;;;6.25;3.33;;;;;;;;;;5126776;28;20043;-72
2022/07/15 00:10:45;;;;;;;16.60;6.85;;;;;;;;;;5123888;28;20039;-72
2022/07/15 00:13:15;;;;;;;6.97;4.45;;;;;;;;;;5126286;28;20433;-72
2022/07/15 00:15:45;;;;;;;4.95;3.00;;;;;;;;;;5126081;28;20043;-72
2022/07/15 00:18:15;;;;;;;5.53;2.83;;;;;;;;;;5126170;28;20528;-72
2022/07/15 00:20:45;;;;;;;5.00;2.80;;;;;;;;;;5126156;28;20070;-72
2022/07/15 00:23:15;;;;;;;5.22;3.70;;;;;;;;;;5126409;27;20074;-71
2022/07/15 00:25:45;;;;;;;5.95;3.88;;;;;;;;;;5126757;28;20486;-72
2022/07/15 00:28:15;;;;;;;6.20;3.28;;;;;;;;;;5126923;28;20047;-73
2022/07/15 00:30:45;;;;;;;6.90;3.33;;;;;;;;;;5127370;28;20506;-72
2022/07/15 00:33:15;;;;;;;4.63;2.70;;;;;;;;;;5126358;28;20069;-72
2022/07/15 00:35:45;;;;;;;4.10;3.10;;;;;;;;;;5125933;28;20425;-73
2022/07/15 00:38:15;;;;;;;6.10;3.22;;;;;;;;;;5126320;28;20051;-73
2022/07/15 00:40:47;;;;;;;5.70;3.35;;;;;;;;;;5126120;28;20051;-72
2022/07/15 00:43:19;;;;;;;8.98;3.67;;;;;;;;;;5124809;28;20733;-72
2022/07/15 00:45:49;;;;;;;7.35;3.97;;;;;;;;;;5125822;28;20054;-72
2022/07/15 00:48:19;;;;;;;6.60;2.78;;;;;;;;;;5126339;28;20054;-72
2022/07/15 00:50:49;;;;;;;5.15;4.13;;;;;;;;;;5126127;28;20520;-73
2022/07/15 00:53:21;;;;;;;7.05;3.85;;;;;;;;;;5124092;28;20058;-73
2022/07/15 00:55:56;;;;;;;4.07;3.47;;;;;;;;;;5127082;28;20035;-73
2022/07/15 00:58:28;;;;;;;7.70;3.30;;;;;;;;;;5123746;28;20046;-73
2022/07/15 01:01:00;;;;;;;8.55;5.90;;;;;;;;;;5123499;28;20046;-72
2022/07/15 01:03:32;;;;;;;9.02;4.90;;;;;;;;;;5126383;27;20062;-72
2022/07/15 01:06:02;;;;;;;10.55;5.68;;;;;;;;;;5125797;27;20051;-72
2022/07/15 01:08:32;;;;;;;9.23;4.68;;;;;;;;;;5124982;28;20054;-72
2022/07/15 01:11:02;;;;;;;6.07;4.65;;;;;;;;;;5127454;27;20058;-76
2022/07/15 01:13:32;;;;;;;6.30;3.55;;;;;;;;;;5129262;27;20845;-72
2022/07/15 01:16:03;;;;;;;9.45;4.53;;;;;;;;;;5128579;27;20502;-71
2022/07/15 01:18:34;;;;;;;9.63;3.83;;;;;;;;;;5128706;27;20046;-72
2022/07/15 01:21:05;;;;;;;7.20;3.85;;;;;;;;;;5128195;27;20050;-72
2022/07/15 01:23:36;;;;;;;5.85;3.72;;;;;;;;;;5106904;27;20043;-72
2022/07/15 01:26:13;;;;;;;7.72;3.63;;;;;;;;;;5110520;27;20541;-72
2022/07/15 01:28:44;;;;;;;4.85;3.70;;;;;;;;;;5127485;27;20051;-72
2022/07/15 01:31:16;;;;;;;9.27;4.22;;;;;;;;;;5127336;27;20050;-72
2022/07/15 01:33:47;;;;;;;7.75;3.70;;;;;;;;;;5126859;27;20050;-72
2022/07/15 01:36:17;;;;;;;9.60;7.85;;;;;;;;;;5127136;27;20427;-72
2022/07/15 01:38:54;;;;;;;14.77;6.88;;;;;;;;;;5127175;27;20058;-72
2022/07/15 01:41:45;;;;;;;12.13;6.55;;;;;;;;;;5128475;27;20063;-74
2022/07/15 01:44:18;;;;;;;12.27;6.32;;;;;;;;;;5110896;27;20066;-72
2022/07/15 01:46:49;;;;;;;6.88;5.55;;;;;;;;;;5111731;27;20055;-72
2022/07/15 01:49:29;;;;;;;6.32;4.95;;;;;;;;;;5128107;27;20502;-72
2022/07/15 01:52:04;;;;;;;10.77;5.43;;;;;;;;;;5131888;27;20078;-72
2022/07/15 01:54:35;;;;;;;8.57;5.07;;;;;;;;;;5127956;27;20047;-72
2022/07/15 01:57:06;;;;;;;8.43;5.72;;;;;;;;;;5129971;27;20054;-72
2022/07/15 01:59:52;;;;;;;11.00;5.60;;;;;;;;;;5127634;27;20051;-72
2022/07/15 02:02:45;;;;;;;9.65;5.93;;;;;;;;;;5131261;27;20067;-72
2022/07/15 02:05:20;;;;;;;12.15;6.43;;;;;;;;;;5128566;27;20059;-72
2022/07/15 02:07:52;;;;;;;10.80;6.80;;;;;;;;;;5127944;27;20051;-72
2022/07/15 02:10:23;;;;;;;9.50;5.30;;;;;;;;;;5126955;27;20069;-72
2022/07/15 02:12:54;;;;;;;13.90;7.47;;;;;;;;;;5128059;27;20498;-72
2022/07/15 02:15:27;;;;;;;21.23;11.52;;;;;;;;;;5127223;27;20047;-72
2022/07/15 02:18:03;;;;;;;17.15;9.48;;;;;;;;;;5127127;27;20054;-72
2022/07/15 02:20:34;;;;;;;11.32;7.50;;;;;;;;;;5129268;27;20031;-76
2022/07/15 02:23:06;;;;;;;13.40;7.03;;;;;;;;;;5127640;27;20434;-72
2022/07/15 02:25:36;;;;;;;15.25;8.88;;;;;;;;;;5127230;27;20050;-71
2022/07/15 02:28:09;;;;;;;13.32;8.38;;;;;;;;;;5128153;27;20058;-71
2022/07/15 02:30:42;;;;;;;15.40;7.78;;;;;;;;;;5128108;27;20051;-71
2022/07/15 02:33:13;;;;;;;13.15;6.75;;;;;;;;;;5127272;27;20066;-71
2022/07/15 02:35:43;;;;;;;15.05;8.20;;;;;;;;;;5127397;27;20054;-71
2022/07/15 02:38:14;;;;;;;11.13;6.53;;;;;;;;;;5126408;27;20082;-71
2022/07/15 02:40:44;;;;;;;9.60;5.47;;;;;;;;;;5128906;27;21133;-71
2022/07/15 02:43:16;;;;;;;34.05;20.35;;;;;;;;;;5126675;27;20043;-71
2022/07/15 02:45:47;;;;;;;13.90;7.00;;;;;;;;;;5127225;27;20502;-71
2022/07/15 02:48:19;;;;;;;10.38;6.82;;;;;;;;;;5129381;27;20042;-71
2022/07/15 02:50:51;;;;;;;7.65;5.35;;;;;;;;;;5127189;27;20062;-71
2022/07/15 02:53:25;;;;;;;7.68;4.72;;;;;;;;;;5127003;27;20051;-71
2022/07/15 02:56:00;;;;;;;7.53;4.10;;;;;;;;;;5127635;27;20054;-71
2022/07/15 02:58:30;;;;;;;8.07;4.13;;;;;;;;;;5126623;27;20062;-72
2022/07/15 03:01:00;;;;;;;6.43;4.57;;;;;;;;;;5126628;27;20058;-71
2022/07/15 03:03:33;;;;;;;8.43;4.82;;;;;;;;;;5126711;27;20055;-71
2022/07/15 03:06:05;;;;;;;11.27;4.30;;;;;;;;;;5127135;27;20043;-73
2022/07/15 03:08:36;;;;;;;9.98;4.65;;;;;;;;;;5126868;27;20521;-71
2022/07/15 03:11:07;;;;;;;10.45;4.60;;;;;;;;;;5127273;27;20406;-71
2022/07/15 03:13:36;;;;;;;12.55;5.22;;;;;;;;;;5126951;27;20124;-71
2022/07/15 03:16:06;;;;;;;;;;;;;;;;;;5128642;27;20039;-71
2022/07/15 03:18:38;;;;;;;5.43;4.57;;;;;;;;;;5126012;27;19924;-71
2022/07/15 03:21:09;;;;;;;7.65;4.88;;;;;;;;;;5126481;27;20376;-71
2022/07/15 03:23:40;;;;;;;10.60;4.32;;;;;;;;;;5128244;27;20478;-71
2022/07/15 03:26:10;;;;;;;6.18;4.25;;;;;;;;;;5126125;27;20059;-71
2022/07/15 03:28:41;;;;;;;8.43;5.35;;;;;;;;;;5127968;27;20499;-71
2022/07/15 03:31:12;;;;;;;12.63;5.03;;;;;;;;;;5126476;27;20054;-72
2022/07/15 03:33:43;;;;;;;6.63;4.40;;;;;;;;;;5125253;27;20063;-71
2022/07/15 03:36:24;;;;;;;11.48;5.03;;;;;;;;;;5126845;27;20138;-71
2022/07/15 03:38:55;;;;;;;5.93;4.35;;;;;;;;;;5125931;27;20066;-71
2022/07/15 03:41:26;;;;;;;10.00;5.38;;;;;;;;;;5127738;27;20046;-71
2022/07/15 03:43:56;;;;;;;10.93;5.28;;;;;;;;;;5125726;27;20054;-71
2022/07/15 03:46:28;;;;;;;11.32;4.65;;;;;;;;;;5109153;27;20043;-72
2022/07/15 03:49:01;;;;;;;9.18;5.05;;;;;;;;;;5126333;27;20531;-71
2022/07/15 03:51:33;;;;;;;8.38;5.15;;;;;;;;;;5125772;27;20043;-72
2022/07/15 03:54:06;;;;;;;8.93;4.60;;;;;;;;;;5126128;27;20043;-71
2022/07/15 03:56:37;;;;;;;10.05;5.13;;;;;;;;;;5125282;27;20082;-72
2022/07/15 03:59:06;;;;;;;8.00;5.13;;;;;;;;;;5128017;28;20048;-72
2022/07/15 04:01:36;;;;;;;13.23;6.03;;;;;;;;;;5127870;28;20371;-71
2022/07/15 04:04:06;;;;;;;9.70;4.82;;;;;;;;;;5127711;28;20516;-71
2022/07/15 04:06:36;;;;;;;9.90;5.68;;;;;;;;;;5125615;28;20059;-72
2022/07/15 04:09:07;;;;;;;7.93;5.00;;;;;;;;;;5126105;28;20050;-71
2022/07/15 04:11:42;;;;;;;7.07;4.25;;;;;;;;;;5127458;28;20050;-71
2022/07/15 04:14:13;;;;;;;12.65;4.70;;;;;;;;;;5125646;28;20086;-71
2022/07/15 04:16:44;;;;;;;5.82;4.35;;;;;;;;;;5127621;28;20051;-71
2022/07/15 04:19:25;;;;;;;5.85;3.97;;;;;;;;;;5127445;28;20520;-71
2022/07/15 04:21:59;;;;;;;9.02;4.07;;;;;;;;;;5125683;28;20050;-71
2022/07/15 04:24:32;;;;;;;7.80;4.35;;;;;;;;;;5126306;28;20047;-71
2022/07/15 04:27:03;;;;;;;10.98;4.28;;;;;;;;;;5125873;28;20051;-71
2022/07/15 04:29:35;;;;;;;9.38;4.38;;;;;;;;;;5125953;28;20047;-71
2022/07/15 04:32:08;;;;;;;6.43;4.05;;;;;;;;;;5124986;28;20517;-71
2022/07/15 04:34:42;;;;;;;6.85;3.88;;;;;;;;;;5125360;28;20425;-71
2022/07/15 04:37:12;;;;;;;9.40;4.05;;;;;;;;;;5126856;28;20044;-71
2022/07/15 04:39:48;;;;;;;8.70;4.47;;;;;;;;;;5125937;28;20047;-71
2022/07/15 04:42:19;;;;;;;8.43;4.55;;;;;;;;;;5125800;28;20059;-71
2022/07/15 04:44:49;;;;;;;8.75;4.25;;;;;;;;;;5127052;27;20055;-71
2022/07/15 04:47:21;;;;;;;9.38;4.38;;;;;;;;;;5129757;27;20062;-71
2022/07/15 04:52:47;;;;;;;10.55;3.90;;;;;;;;;;5129409;27;20038;-71
2022/07/15 04:55:17;;;;;;;7.03;4.05;;;;;;;;;;5129356;27;20054;-71
2022/07/15 04:57:52;;;;;;;8.05;3.75;;;;;;;;;;5129135;27;20058;-71
2022/07/15 05:00:23;;;;;;;5.20;3.88;;;;;;;;;;5130735;27;20046;-71
2022/07/15 05:02:53;;;;;;;7.57;3.70;;;;;;;;;;5111764;27;20055;-71
2022/07/15 05:05:24;;;;;;;9.18;3.78;;;;;;;;;;5129397;27;20059;-71
2022/07/15 05:07:54;;;;;;;7.13;3.58;;;;;;;;;;5129376;27;20062;-71
2022/07/15 05:10:24;;;;;;;8.35;3.53;;;;;;;;;;5129547;27;20050;-72
2022/07/15 05:13:05;;;;;;;7.78;3.22;;;;;;;;;;5129381;27;20049;-71
2022/07/15 05:15:36;;;;;;;6.88;3.47;;;;;;;;;;5129315;27;20088;-71
2022/07/15 05:18:25;;;;;;;4.50;2.63;;;;;;;;;;5129923;27;20051;-71
2022/07/15 05:20:59;;;;;;;6.35;3.05;;;;;;;;;;5128678;27;20051;-71
2022/07/15 05:23:33;;;;;;;4.18;2.05;;;;;;;;;;5128681;27;20055;-70
2022/07/15 05:26:06;;;;;;;11.13;2.33;;;;;;;;;;5128808;27;20051;-71
2022/07/15 05:28:41;;;;;;;8.13;2.60;;;;;;;;;;5128794;27;20413;-71
2022/07/15 05:31:12;;;;;;;4.10;2.60;;;;;;;;;;5130356;27;20058;-71
2022/07/15 05:33:43;;;;;;;7.53;2.85;;;;;;;;;;5128880;27;20043;-71
2022/07/15 05:36:15;;;;;;;5.10;3.55;;;;;;;;;;5128442;27;20051;-71
2022/07/15 05:38:47;;;;;;;7.18;2.60;;;;;;;;;;5128331;27;20054;-71
2022/07/15 05:41:19;;;;;;;5.57;3.20;;;;;;;;;;5128449;27;20051;-71
2022/07/15 05:43:50;;;;;;;12.43;3.75;;;;;;;;;;5128012;27;20058;-71
2022/07/15 05:46:22;;;;;;;5.45;2.78;;;;;;;;;;5128398;27;20055;-71
2022/07/15 05:48:57;;;;;;;6.60;3.13;;;;;;;;;;5127906;27;20545;-71
2022/07/15 05:51:29;;;;;;;6.22;3.42;;;;;;;;;;5127841;27;20043;-71
2022/07/15 05:54:00;;;;;;;6.93;3.47;;;;;;;;;;5128139;27;20079;-71
2022/07/15 05:56:32;;;;;;;5.47;2.90;;;;;;;;;;5127896;27;20058;-71
2022/07/15 05:59:03;;;;;;;5.93;3.10;;;;;;;;;;5128266;27;20058;-71
2022/07/15 06:01:35;;;;;;;6.90;2.92;;;;;;;;;;5127637;27;20047;-71
2022/07/15 06:04:05;;;;;;;7.93;3.33;;;;;;;;;;5127471;27;20058;-73
2022/07/15 06:06:36;;;;;;;7.00;2.95;;;;;;;;;;5127938;27;20058;-71
2022/07/15 06:09:06;;;;;;;5.50;3.03;;;;;;;;;;5128147;27;20490;-72
2022/07/15 06:11:35;;;;;;;;;;;;;;;;;;5128409;27;20047;-72
2022/07/15 06:14:07;;;;;;;7.68;3.00;;;;;;;;;;5127254;27;19930;-71
2022/07/15 06:16:38;;;;;;;8.07;2.78;;;;;;;;;;5128084;27;20413;-71
2022/07/15 06:19:10;;;;;;;7.72;3.22;;;;;;;;;;5128611;27;20047;-72
2022/07/15 06:21:40;;;;;;;6.13;3.30;;;;;;;;;;5128032;27;20047;-72
2022/07/15 06:24:10;;;;;;;8.68;2.53;;;;;;;;;;5127443;27;20058;-71
2022/07/15 06:26:41;;;;;;;3.80;2.53;;;;;;;;;;5129311;27;20046;-72
2022/07/15 06:29:12;;;;;;;14.73;2.60;;;;;;;;;;5129479;27;20062;-71
2022/07/15 06:31:43;;;;;;;6.45;2.58;;;;;;;;;;5129163;27;20043;-72
2022/07/15 06:34:13;;;;;;;8.57;2.60;;;;;;;;;;5129563;27;20055;-72
2022/07/15 06:36:43;;;;;;;7.90;2.65;;;;;;;;;;5126964;27;20062;-71
2022/07/15 06:39:13;;;;;;;7.68;2.30;;;;;;;;;;5129415;27;20047;-71
2022/07/15 06:41:45;;;;;;;6.78;2.35;;;;;;;;;;5127390;27;20046;-72
2022/07/15 06:44:16;;;;;;;7.25;2.88;;;;;;;;;;5127565;27;20063;-71
2022/07/15 06:46:54;;;;;;;7.22;3.15;;;;;;;;;;5127154;27;20062;-72
2022/07/15 06:49:29;;;;;;;8.35;3.00;;;;;;;;;;5126872;27;20066;-71
2022/07/15 06:52:01;;;;;;;7.60;2.95;;;;;;;;;;5127532;27;20043;-71
2022/07/15 06:54:32;;;;;;;7.80;2.80;;;;;;;;;;5127065;27;20051;-72
2022/07/15 06:57:02;;;;;;;5.72;2.78;;;;;;;;;;5126968;27;20536;-72
2022/07/15 06:59:33;;;;;;;5.28;2.53;;;;;;;;;;5110431;27;20131;-72
2022/07/15 07:02:06;;;;;;;8.18;2.70;;;;;;;;;;5126930;27;20055;-71
2022/07/15 07:04:36;;;;;;;12.88;3.10;;;;;;;;;;5128495;27;20055;-71
2022/07/15 07:07:06;;;;;;;9.52;3.13;;;;;;;;;;5126656;27;20054;-71
2022/07/15 07:09:36;;;;;;;9.15;3.20;;;;;;;;;;5127681;27;20043;-72
2022/07/15 07:12:06;;;;;;;5.88;3.30;;;;;;;;;;5126727;27;20051;-71
2022/07/15 07:14:36;;;;;;;8.18;2.85;;;;;;;;;;5128607;27;20047;-72
2022/07/15 07:17:06;;;;;;;5.38;2.63;;;;;;;;;;5128651;27;20398;-71
2022/07/15 07:19:36;;;;;;;7.10;2.80;;;;;;;;;;5128055;27;20054;-72
2022/07/15 07:22:06;;;;;;;7.82;3.28;;;;;;;;;;5128054;27;20490;-71
2022/07/15 07:24:36;;;;;;;6.95;3.40;;;;;;;;;;5127864;27;20058;-71
2022/07/15 07:27:06;;;;;;;7.13;2.83;;;;;;;;;;5128234;27;20043;-71
2022/07/15 07:29:36;;;;;;;7.68;3.08;;;;;;;;;;5127078;27;20039;-71
2022/07/15 07:32:05;;;;;;;;;;;;;;;;;;5128522;27;20653;-72
2022/07/15 07:34:35;;;;;;;4.43;3.17;;;;;;;;;;5127665;27;19923;-72
2022/07/15 07:37:04;;;;;;;;;;;;;;;;;;5128623;27;20043;-71
2022/07/15 07:39:34;;;;;;;6.40;2.80;;;;;;;;;;5127642;27;20400;-71
2022/07/15 07:42:04;;;;;;;9.10;3.38;;;;;;;;;;5127840;27;20047;-71
2022/07/15 07:44:34;;;;;;;4.70;3.47;;;;;;;;;;5127588;27;20058;-71
2022/07/15 07:47:04;;;;;;;8.00;3.05;;;;;;;;;;5127502;27;20050;-71
2022/07/15 07:49:44;;;;;;;6.32;3.20;;;;;;;;;;5127852;27;20489;-71
2022/07/15 07:52:18;;;;;;;6.88;3.28;;;;;;;;;;5127707;27;20047;-72
2022/07/15 07:54:55;;;;;;;10.07;3.67;;;;;;;;;;5128132;27;20043;-71
2022/07/15 07:57:26;;;;;;;6.80;3.90;;;;;;;;;;5126287;27;20058;-71
2022/07/15 07:59:56;;;;;;;5.75;3.20;;;;;;;;;;5128248;28;20054;-71
2022/07/15 08:02:26;;;;;;;8.05;3.78;;;;;;;;;;5127549;28;20050;-71
2022/07/15 08:04:56;;;;;;;8.23;3.25;;;;;;;;;;5126028;28;20437;-71
2022/07/15 08:07:26;;;;;;;4.25;3.45;;;;;;;;;;5127400;28;20054;-71
2022/07/15 08:09:57;;;;;;;6.70;3.67;;;;;;;;;;5127978;28;20499;-72
2022/07/15 08:12:26;;;;;;;9.32;4.20;;;;;;;;;;5127227;28;20047;-72
2022/07/15 08:14:57;;;;;;;7.35;3.20;;;;;;;;;;5127199;28;20051;-71
2022/07/15 08:17:26;;;;;;;8.27;3.78;;;;;;;;;;5128286;28;20043;-72
2022/07/15 08:19:57;;;;;;;9.80;3.90;;;;;;;;;;5129174;27;20043;-72
2022/07/15 08:22:27;;;;;;;9.68;3.03;;;;;;;;;;5130305;27;20050;-71
2022/07/15 08:24:57;;;;;;;5.05;3.17;;;;;;;;;;5131560;27;20047;-72
2022/07/15 08:27:27;;;;;;;9.18;3.58;;;;;;;;;;5131906;27;20489;-72
2022/07/15 08:29:57;;;;;;;4.40;3.58;;;;;;;;;;5129638;27;20047;-71
2022/07/15 08:32:28;;;;;;;7.25;3.05;;;;;;;;;;5131723;27;20539;-71
2022/07/15 08:34:57;;;;;;;8.95;5.25;;;;;;;;;;5130957;27;20050;-71
2022/07/15 08:37:36;;;;;;;4.47;3.05;;;;;;;;;;5131450;27;20039;-72
2022/07/15 08:40:10;;;;;;;6.82;3.17;;;;;;;;;;5131229;27;20039;-72
2022/07/15 08:42:43;;;;;;;6.32;3.88;;;;;;;;;;5131294;27;20054;-71
2022/07/15 08:45:15;;;;;;;9.38;3.40;;;;;;;;;;5130949;27;20059;-72
2022/07/15 08:47:47;;;;;;;7.93;3.80;;;;;;;;;;5131344;27;20104;-72
2022/07/15 08:50:22;;;;;;;8.60;3.63;;;;;;;;;;5131367;27;20043;-72
2022/07/15 08:52:54;;;;;;;7.28;3.50;;;;;;;;;;5131370;27;20047;-71
2022/07/15 08:55:24;;;;;;;6.60;3.67;;;;;;;;;;5131356;27;20043;-72
2022/07/15 08:57:54;;;;;;;9.65;3.97;;;;;;;;;;5130087;27;20054;-72
2022/07/15 09:00:29;;;;;;;5.80;3.42;;;;;;;;;;5131470;27;20691;-72
2022/07/15 09:03:01;;;;;;;8.57;4.63;;;;;;;;;;5130732;27;20516;-72
2022/07/15 09:05:36;;;;;;;7.13;3.70;;;;;;;;;;5130487;27;20062;-71
2022/07/15 09:08:11;;;;;;;7.00;4.20;;;;;;;;;;5131276;27;20498;-71
2022/07/15 09:10:44;;;;;;;7.50;3.92;;;;;;;;;;5131027;27;20061;-71
2022/07/15 09:13:30;;;;;;;7.45;3.47;;;;;;;;;;5130831;27;20066;-72
2022/07/15 09:16:10;;;;;;;7.13;3.38;;;;;;;;;;5130760;27;20077;-71
2022/07/15 09:18:43;;;;;;;6.85;4.30;;;;;;;;;;5130940;27;20054;-71
2022/07/15 09:21:17;;;;;;;13.63;4.35;;;;;;;;;;5130852;27;20066;-71
2022/07/15 09:23:50;;;;;;;10.35;3.45;;;;;;;;;;5131126;27;20046;-71
2022/07/15 09:26:37;;;;;;;7.78;3.80;;;;;;;;;;5130321;27;20058;-71
2022/07/15 09:35:02;;;;;;;6.75;3.72;;;;;;;;;;5130173;27;19923;-71
2022/07/15 09:37:32;;;;;;;5.55;3.38;;;;;;;;;;5129635;27;20054;-71
2022/07/15 09:40:02;;;;;;;;;;;;;;;;;;5131022;27;20051;-71
2022/07/15 09:42:32;;;;;;;6.60;3.17;;;;;;;;;;5129979;27;19923;-71
2022/07/15 09:45:20;;;;;;;7.97;4.57;;;;;;;;;;5129613;27;20059;-71
2022/07/15 09:48:06;;;;;;;6.45;3.75;;;;;;;;;;5130388;27;20039;-71
2022/07/15 09:50:39;;;;;;;14.93;6.90;;;;;;;;;;5131807;27;20050;-72
2022/07/15 09:53:14;;;;;;;5.80;3.90;;;;;;;;;;5147043;27;20051;-71
2022/07/15 09:55:45;;;;;;;7.90;5.30;;;;;;;;;;5129878;27;20070;-71
2022/07/15 09:58:17;;;;;;;8.80;4.35;;;;;;;;;;5129309;27;20521;-71
2022/07/15 10:00:47;;;;;;;10.30;4.72;;;;;;;;;;5129559;27;20101;-71
2022/07/15 10:03:17;;;;;;;6.82;4.20;;;;;;;;;;5129490;27;20043;-71
2022/07/15 10:05:54;;;;;;;5.88;3.75;;;;;;;;;;5129985;27;20486;-71
2022/07/15 10:08:26;;;;;;;9.13;4.00;;;;;;;;;;5129169;27;20493;-71
2022/07/15 10:10:56;;;;;;;4.43;3.30;;;;;;;;;;5130216;27;20663;-71
2022/07/15 10:13:53;;;;;;;8.88;5.05;;;;;;;;;;5129150;27;20047;-71
2022/07/15 10:16:44;;;;;;;6.43;4.75;;;;;;;;;;5129381;27;20054;-71
2022/07/15 10:19:30;;;;;;;9.52;3.85;;;;;;;;;;5129669;27;20057;-71
2022/07/15 10:22:15;;;;;;;8.70;4.50;;;;;;;;;;5127967;27;20057;-71
2022/07/15 10:25:04;;;;;;;10.95;5.70;;;;;;;;;;5129309;27;20050;-71
2022/07/15 10:27:37;;;;;;;12.05;6.15;;;;;;;;;;5127012;27;20054;-71
2022/07/15 10:30:08;;;;;;;9.30;4.68;;;;;;;;;;5125606;27;20054;-74
2022/07/15 10:33:05;;;;;;;8.55;5.60;;;;;;;;;;5126919;27;20044;-71
2022/07/15 10:35:47;;;;;;;9.27;5.03;;;;;;;;;;5128159;27;20038;-71
2022/07/15 10:38:20;;;;;;;12.05;6.63;;;;;;;;;;5127747;27;20047;-71
2022/07/15 10:41:21;;;;;;;9.90;6.65;;;;;;;;;;5128999;27;20498;-71
2022/07/15 10:43:53;;;;;;;12.60;6.00;;;;;;;;;;5128250;27;20047;-71
2022/07/15 10:46:26;;;;;;;9.05;6.07;;;;;;;;;;5127658;27;20490;-71
2022/07/15 10:49:00;;;;;;;6.70;4.57;;;;;;;;;;5129196;27;20051;-71
2022/07/15 10:51:36;;;;;;;8.52;5.82;;;;;;;;;;5128610;27;20051;-71
2022/07/15 10:54:07;;;;;;;11.07;5.75;;;;;;;;;;5128534;27;20505;-71
2022/07/15 10:56:42;;;;;;;11.32;6.43;;;;;;;;;;5128987;27;20494;-71
2022/07/15 10:59:26;;;;;;;10.75;5.63;;;;;;;;;;5129153;27;20058;-71
2022/07/15 11:02:00;;;;;;;9.48;5.15;;;;;;;;;;5128595;27;20043;-72
2022/07/15 11:04:33;;;;;;;12.88;4.88;;;;;;;;;;5127949;27;20521;-72
2022/07/15 11:07:20;;;;;;;10.68;5.95;;;;;;;;;;5128769;27;20043;-72
2022/07/15 11:10:03;;;;;;;12.55;6.05;;;;;;;;;;5128480;27;20359;-71
2022/07/15 11:12:34;;;;;;;11.63;5.95;;;;;;;;;;5128096;27;20035;-71
2022/07/15 11:15:13;;;;;;;11.85;5.90;;;;;;;;;;5128311;27;20051;-71
2022/07/15 11:17:46;;;;;;;11.70;4.55;;;;;;;;;;5128144;27;20054;-72
2022/07/15 11:20:34;;;;;;;16.13;4.75;;;;;;;;;;5128187;27;20039;-70
2022/07/15 11:23:07;;;;;;;11.18;4.43;;;;;;;;;;5128030;27;20513;-72
2022/07/15 11:25:41;;;;;;;14.70;4.57;;;;;;;;;;5126539;27;20050;-72
2022/07/15 11:28:14;;;;;;;6.70;4.15;;;;;;;;;;5126302;27;20657;-72
2022/07/15 11:30:56;;;;;;;12.45;4.07;;;;;;;;;;5126419;27;20505;-72
2022/07/15 11:33:26;;;;;;;8.23;5.22;;;;;;;;;;5126832;27;20050;-73
2022/07/15 11:35:59;;;;;;;7.75;3.72;;;;;;;;;;5126075;27;20050;-72
2022/07/15 11:38:32;;;;;;;9.02;4.25;;;;;;;;;;5126323;27;20541;-71
2022/07/15 11:46:51;;;;;;;20.60;5.70;;;;;;;;;;5127857;27;20050;-72
2022/07/15 11:49:31;;;;;;;13.10;5.18;;;;;;;;;;5127135;27;20059;-72
2022/07/15 11:52:04;;;;;;;12.23;5.93;;;;;;;;;;5127859;27;20039;-72
2022/07/15 11:54:41;;;;;;;9.50;6.38;;;;;;;;;;5127503;27;20047;-72
2022/07/15 11:57:13;;;;;;;6.45;4.22;;;;;;;;;;5127409;27;20043;-72
2022/07/15 11:59:54;;;;;;;7.53;5.28;;;;;;;;;;5127888;28;20047;-72
2022/07/15 12:02:26;;;;;;;9.00;4.47;;;;;;;;;;5128290;28;20051;-72
2022/07/15 12:05:08;;;;;;;7.25;3.72;;;;;;;;;;5127784;28;20043;-76
2022/07/15 12:07:47;;;;;;;6.80;3.88;;;;;;;;;;5127405;28;20046;-72
2022/07/15 12:10:19;;;;;;;6.90;4.07;;;;;;;;;;5128131;28;20047;-72
2022/07/15 12:13:01;;;;;;;9.27;3.92;;;;;;;;;;5127773;28;20047;-72
2022/07/15 12:15:34;;;;;;;9.98;4.50;;;;;;;;;;5127308;28;20047;-72
2022/07/15 12:18:04;;;;;;;9.05;5.43;;;;;;;;;;5127851;28;20051;-72
2022/07/15 12:20:34;;;;;;;14.75;8.38;;;;;;;;;;5126274;28;20417;-77
2022/07/15 12:23:07;;;;;;;14.25;6.90;;;;;;;;;;5127966;28;20058;-72
2022/07/15 12:25:38;;;;;;;11.77;7.00;;;;;;;;;;5127668;28;20050;-72
2022/07/15 12:28:09;;;;;;;11.35;6.40;;;;;;;;;;5128191;28;20363;-72
2022/07/15 12:30:39;;;;;;;14.88;5.90;;;;;;;;;;5127938;28;20054;-72
2022/07/15 12:33:19;;;;;;;14.13;7.60;;;;;;;;;;5127687;28;20417;-72
2022/07/15 12:35:49;;;;;;;10.63;6.75;;;;;;;;;;5127203;28;20053;-72
2022/07/15 12:38:27;;;;;;;12.00;7.32;;;;;;;;;;5127286;28;20050;-72
2022/07/15 12:41:08;;;;;;;13.65;5.82;;;;;;;;;;5127413;28;20050;-72
2022/07/15 12:43:55;;;;;;;12.07;6.32;;;;;;;;;;5127114;28;20074;-72
2022/07/15 12:46:46;;;;;;;15.90;9.05;;;;;;;;;;5127319;28;20537;-72
2022/07/15 12:49:38;;;;;;;18.80;8.75;;;;;;;;;;5127355;28;20529;-72
2022/07/15 12:52:16;;;;;;;17.10;8.90;;;;;;;;;;5126605;28;20043;-72
2022/07/15 12:54:47;;;;;;;17.25;9.45;;;;;;;;;;5127100;28;20043;-72
2022/07/15 12:57:33;;;;;;;15.13;10.00;;;;;;;;;;5126611;28;20055;-72
2022/07/15 13:00:10;;;;;;;15.82;8.80;;;;;;;;;;5127191;28;20031;-74
2022/07/15 13:03:02;;;;;;;19.95;12.10;;;;;;;;;;5127270;28;20058;-72
2022/07/15 13:05:41;;;;;;;19.58;13.13;;;;;;;;;;5127588;27;20486;-72
2022/07/15 13:08:16;;;;;;;17.15;12.38;;;;;;;;;;5129727;27;20160;-71
2022/07/15 13:10:50;;;;;;;18.77;12.68;;;;;;;;;;5130778;27;20619;-71
2022/07/15 13:13:23;;;;;;;20.58;12.73;;;;;;;;;;5130562;27;20490;-72
2022/07/15 13:15:53;;;;;;;24.15;12.52;;;;;;;;;;5131223;27;20050;-72
2022/07/15 13:18:25;;;;;;;28.17;18.48;;;;;;;;;;5127959;27;20047;-72
2022/07/15 13:20:57;;;;;;;24.33;16.75;;;;;;;;;;5130515;27;20054;-72
2022/07/15 13:23:31;;;;;;;21.45;14.73;;;;;;;;;;5130508;27;20050;-72
2022/07/15 13:26:02;;;;;;;26.27;14.07;;;;;;;;;;5130719;27;20047;-72
2022/07/15 13:28:33;;;;;;;26.25;16.90;;;;;;;;;;5130360;27;20058;-71
2022/07/15 13:31:03;;;;;;;24.77;15.05;;;;;;;;;;5130262;27;20039;-72
2022/07/15 13:33:34;;;;;;;21.90;13.13;;;;;;;;;;5130340;27;20046;-73
2022/07/15 13:36:11;;;;;;;25.35;14.90;;;;;;;;;;5130257;27;20039;-72
2022/07/15 13:38:41;;;;;;;24.10;14.75;;;;;;;;;;5130581;27;20047;-72
2022/07/15 13:41:11;;;;;;;21.98;14.30;;;;;;;;;;5130455;27;20062;-73
2022/07/15 13:43:40;;;;;;;;;;;;;;;;;;5130447;27;20055;-72
2022/07/15 13:46:11;;;;;;;26.17;17.58;;;;;;;;;;5128252;27;19923;-79
2022/07/15 13:48:41;;;;;;;27.70;17.63;;;;;;;;;;5130270;27;20043;-72
2022/07/15 13:51:22;;;;;;;22.00;16.05;;;;;;;;;;5129804;27;20489;-72
2022/07/15 13:53:55;;;;;;;26.23;15.27;;;;;;;;;;5130080;27;20047;-72
2022/07/15 13:56:27;;;;;;;26.02;15.88;;;;;;;;;;5128392;27;20698;-73
2022/07/15 13:58:58;;;;;;;26.60;16.63;;;;;;;;;;5129001;27;20549;-72
2022/07/15 14:01:33;;;;;;;26.48;17.17;;;;;;;;;;5129325;27;20039;-81
2022/07/15 14:04:03;;;;;;;24.25;16.02;;;;;;;;;;5129744;27;20043;-73
2022/07/15 14:06:33;;;;;;;20.67;14.65;;;;;;;;;;5129766;27;20051;-72
2022/07/15 14:09:03;;;;;;;21.58;14.77;;;;;;;;;;5129459;27;20055;-72
2022/07/15 14:11:33;;;;;;;22.70;15.35;;;;;;;;;;5130260;27;20043;-73
2022/07/15 14:14:03;;;;;;;18.52;14.00;;;;;;;;;;5129641;27;20051;-72
2022/07/15 14:16:33;;;;;;;20.95;13.15;;;;;;;;;;5128336;27;20073;-73
2022/07/15 14:19:03;;;;;;;18.60;12.30;;;;;;;;;;5129064;27;20055;-72
2022/07/15 14:21:33;;;;;;;12.13;9.10;;;;;;;;;;5129407;27;20035;-72
2022/07/15 14:24:11;;;;;;;11.50;7.90;;;;;;;;;;5129707;27;20047;-72
2022/07/15 14:26:41;;;;;;;9.90;6.88;;;;;;;;;;5129313;27;20039;-76
2022/07/15 14:29:13;;;;;;;9.55;7.28;;;;;;;;;;5129335;27;20069;-73
2022/07/15 14:31:43;;;;;;;8.15;6.57;;;;;;;;;;5129649;27;20070;-73
2022/07/15 14:34:13;;;;;;;9.43;5.78;;;;;;;;;;5128931;27;20047;-74
2022/07/15 14:36:43;;;;;;;9.65;6.32;;;;;;;;;;5129833;27;20039;-72
2022/07/15 14:39:33;;;;;;;9.38;6.45;;;;;;;;;;5129164;27;20039;-73
2022/07/15 14:42:03;;;;;;;10.15;6.00;;;;;;;;;;5129318;27;20047;-73
2022/07/15 14:44:33;;;;;;;10.32;6.53;;;;;;;;;;5128873;27;20047;-73
2022/07/15 14:47:03;;;;;;;8.57;6.90;;;;;;;;;;5129316;27;20047;-72
2022/07/15 14:49:33;;;;;;;10.30;6.10;;;;;;;;;;5128770;27;20057;-73
2022/07/15 14:52:02;;;;;;;12.20;7.57;;;;;;;;;;5129013;27;20133;-72
2022/07/15 14:54:32;;;;;;;10.05;6.05;;;;;;;;;;5129273;27;20418;-74
2022/07/15 14:57:02;;;;;;;11.52;7.22;;;;;;;;;;5129332;27;20050;-73
2022/07/15 14:59:36;;;;;;;9.60;6.55;;;;;;;;;;5128929;27;20043;-74
2022/07/15 15:02:08;;;;;;;7.57;6.28;;;;;;;;;;5128639;27;20043;-75
2022/07/15 15:04:39;;;;;;;9.90;6.43;;;;;;;;;;5127155;27;20054;-73
2022/07/15 15:07:08;;;;;;;9.38;5.32;;;;;;;;;;5128362;27;20043;-73
2022/07/15 15:09:38;;;;;;;9.63;6.55;;;;;;;;;;5128885;27;20517;-73
2022/07/15 15:12:08;;;;;;;9.40;6.03;;;;;;;;;;5127261;27;20051;-73
2022/07/15 15:14:38;;;;;;;7.88;5.55;;;;;;;;;;5127988;27;20494;-73
2022/07/15 15:17:08;;;;;;;8.50;6.65;;;;;;;;;;5128082;27;20517;-73
2022/07/15 15:19:38;;;;;;;10.73;7.20;;;;;;;;;;5127627;27;20525;-72
2022/07/15 15:22:08;;;;;;;11.85;7.03;;;;;;;;;;5127985;27;20382;-73
2022/07/15 15:24:38;;;;;;;9.10;6.72;;;;;;;;;;5128140;27;20053;-72
2022/07/15 15:27:10;;;;;;;11.90;5.82;;;;;;;;;;5128191;27;20409;-73